Terminal Aerodrome Forecast
Issued by NWS Northern Indiana

Home | Current Version | Previous Version | Graphics & Text | Print | Product List | Glossary On
Versions: 1 2 3 4 5 6 7 8 9 10 11 12 13 14 15 16 17 18
000
FTUS43 KIWX 181726
TAFFWA
TAF
KFWA 181726Z 1818/1918 24011KT 1SM SHRA VCTS OVC020CB
     FM182000 31015KT 2SM SHRA VCTS OVC008CB
     FM182300 33022G31KT 2SM -SHRA OVC008
     FM190200 32021G29KT P6SM VCSH OVC015
     FM190600 31017G29KT P6SM OVC020
     FM190800 30014KT P6SM OVC025=

USA.gov is the U.S. government's official web portal to all federal, state and local government web resources and services.